Portada
METAR-TAF:

METAR-TAF

Aeroports :

Ponta Delgada, Açores, Portugal

latitud: 37-44N, longitud: 025-42W, altitud: 71 m

Observació

L'informe es va fer fa 35 minuts, a les 00:00 UTC
Vent 7 kt del Nord/Nord-Est, variant entre Nord/Nord-Oest i Est/Nord-Est
Temperatura 23°C
Humitat 83%
Pressió 1029 hPa
Visibilitat 10 km o més
Escasses núvols a una alçada de 1500 ft

METAR: LPPD 160000Z 02007KT 340V060 9999 FEW015 23/20 Q1029

Hora: 00:35 (00:35 UTC)

Pronòstic

L'informe es va fer fa 1 hora i 35 minuts, a les 23:00 UTC
Pronòstic vàlid del 16 a les 00 UTC al 16 a les 24 UTC
Vent 7 kt del Nord/Nord-Est
Visibilitat 10 km o més
Núvols disperses a una alçada de 1400 ft

TAF: LPPD 152300Z 1600/1624 03007KT 9999 SCT014

Observacions i pronòstics meteorològics de més de 4000 aeroports (METAR i TAF).

Les estacions disponibles són els punts grocs i vermells al mapa.

Posi el ratolí al punt desitjat per veure el nom de l'estació.

Feu clic per veure les observacions i els pronòstics meteorològics.

Per canviar el mapa: feu clic els botons verds amb una creu de color negre per apropar; al botó verd amb un guió per allunyar la imatge; o en les fletxes verdes per a mapes adjacents.


METAR-TAF: